Time;durP1;ratioP1;P1;durP2;ratioP2;P2;SDS_P1;SDS_P2;PMS_P1;PMS_P2;Temp;Humidity;BMP_temperature;BMP_pressure;BME280_temperature;BME280_humidity;BME280_pressure;Samples;Min_cycle;Max_cycle;Signal;HPM_P1;HPM_P2
2022/02/23 00:00:38;;;;;;;;;1.00;1.00;;;;;18.28;40.43;102243.13;5076114;27;51459;-53
2022/02/23 00:03:03;;;;;;;;;2.00;1.50;;;;;18.27;40.30;102241.44;5076322;27;51192;-52
2022/02/23 00:05:28;;;;;;;;;2.50;1.25;;;;;18.29;40.33;102241.25;5076227;27;51297;-53
2022/02/23 00:07:54;;;;;;;;;3.25;2.00;;;;;18.27;40.25;102238.69;5074447;27;51878;-48
2022/02/23 00:10:19;;;;;;;;;1.50;1.50;;;;;18.28;40.30;102242.28;5076166;27;50939;-48
2022/02/23 00:12:45;;;;;;;;;1.75;1.75;;;;;18.28;40.36;102245.03;5076265;27;51157;-50
2022/02/23 00:15:10;;;;;;;;;2.00;2.00;;;;;18.27;40.30;102249.66;5076284;27;51103;-53
2022/02/23 00:17:39;;;;;;;;;1.00;1.00;;;;;18.27;40.14;102246.91;5075367;27;51140;-50
2022/02/23 00:20:05;;;;;;;;;3.50;2.00;;;;;18.27;40.40;102243.31;5075954;27;51350;-50
2022/02/23 00:22:34;;;;;;;;;4.75;2.25;;;;;18.27;40.20;102255.16;5075725;27;51164;-52
2022/02/23 00:24:59;;;;;;;;;2.00;1.00;;;;;18.28;40.21;102250.50;5076080;28;52065;-51
2022/02/23 00:27:25;;;;;;;;;1.00;1.00;;;;;18.28;40.16;102250.50;5075872;27;50981;-51
2022/02/23 00:29:50;;;;;;;;;0.50;0.50;;;;;18.28;40.28;102245.03;5075747;27;50958;-52
2022/02/23 00:32:16;;;;;;;;;2.50;1.00;;;;;18.26;40.20;102250.69;5075768;27;51403;-49
2022/02/23 00:34:42;;;;;;;;;2.00;1.00;;;;;18.27;40.30;102251.53;5076281;27;51366;-53
2022/02/23 00:37:07;;;;;;;;;4.00;2.00;;;;;18.26;39.86;102250.69;5075290;27;51796;-53
2022/02/23 00:39:32;;;;;;;;;1.50;1.50;;;;;18.26;40.25;102253.44;5075920;27;51060;-52
2022/02/23 00:41:58;;;;;;;;;1.75;1.50;;;;;18.27;40.25;102246.06;5075605;27;51088;-49
2022/02/23 00:44:23;;;;;;;;;1.75;1.75;;;;;18.26;40.39;102242.47;5076106;27;50968;-52
2022/02/23 00:46:48;;;;;;;;;1.00;1.00;;;;;18.26;40.18;102239.72;5075722;27;50917;-54
2022/02/23 00:49:14;;;;;;;;;1.50;1.25;;;;;18.26;40.24;102238.88;5075409;27;51025;-48
2022/02/23 00:51:39;;;;;;;;;1.75;1.75;;;;;18.27;40.30;102255.16;5075511;27;51197;-53
2022/02/23 00:54:05;;;;;;;;;1.75;1.75;;;;;18.27;40.34;102251.53;5075246;27;50987;-54
2022/02/23 00:56:31;;;;;;;;;3.00;1.00;;;;;18.26;40.21;102255.31;5075377;27;51130;-52
2022/02/23 00:58:56;;;;;;;;;2.00;2.00;;;;;18.26;39.85;102247.09;5075592;28;51507;-53
2022/02/23 01:01:22;;;;;;;;;1.00;1.00;;;;;18.25;40.35;102248.97;5075602;27;51067;-51
2022/02/23 01:03:47;;;;;;;;;3.75;2.00;;;;;18.25;40.05;102262.69;5075860;27;50972;-49
2022/02/23 01:06:13;;;;;;;;;3.00;3.00;;;;;18.25;40.46;102248.97;5074976;27;52157;-53
2022/02/23 01:08:38;;;;;;;;;3.00;2.00;;;;;18.26;40.16;102255.31;5075335;27;51032;-53
2022/02/23 01:11:04;;;;;;;;;1.25;1.25;;;;;18.25;40.31;102262.69;5075516;27;51104;-52
2022/02/23 01:13:30;;;;;;;;;2.00;2.00;;;;;18.25;40.31;102262.69;5075519;27;51112;-50
2022/02/23 01:15:55;;;;;;;;;3.75;1.00;;;;;18.24;40.22;102263.72;5074920;27;52721;-51
2022/02/23 01:18:21;;;;;;;;;0.50;0.50;;;;;18.24;40.39;102254.66;5108670;27;51292;-51
2022/02/23 01:20:47;;;;;;;;;2.75;0.75;;;;;18.24;40.40;102258.25;5078812;27;51047;-48
2022/02/23 01:23:12;;;;;;;;;2.00;2.00;;;;;18.24;40.41;102261.00;5078589;27;51348;-52
2022/02/23 01:25:38;;;;;;;;;2.75;2.00;;;;;18.24;40.51;102261.00;5078583;27;50925;-51
2022/02/23 01:28:06;;;;;;;;;1.00;1.00;;;;;18.24;40.46;102268.34;5078811;27;50978;-51
2022/02/23 01:30:32;;;;;;;;;1.50;1.50;;;;;18.24;40.13;102266.47;5078451;27;51135;-52
2022/02/23 01:32:58;;;;;;;;;1.75;1.75;;;;;18.24;40.46;102271.97;5078465;27;51423;-53
2022/02/23 01:35:25;;;;;;;;;1.00;1.00;;;;;18.23;40.23;102264.72;5078183;27;50931;-53
2022/02/23 01:37:52;;;;;;;;;1.00;1.00;;;;;18.22;40.38;102265.75;5078304;27;51096;-51
2022/02/23 01:40:18;;;;;;;;;2.50;1.00;;;;;18.22;40.31;102271.25;5078676;27;51087;-52
2022/02/23 01:42:43;;;;;;;;;2.00;1.75;;;;;18.23;40.15;102270.22;5078497;27;51383;-52
2022/02/23 01:45:10;;;;;;;;;1.00;1.00;;;;;18.23;40.28;102267.47;5078378;27;51131;-52
2022/02/23 01:47:35;;;;;;;;;0.75;0.75;;;;;18.22;40.26;102270.38;5078272;27;51170;-51
2022/02/23 01:50:01;;;;;;;;;3.00;1.75;;;;;18.21;40.10;102275.03;5078592;28;51106;-49
2022/02/23 01:52:26;;;;;;;;;5.75;3.75;;;;;18.22;40.34;102281.38;5078287;27;51057;-53
2022/02/23 01:54:52;;;;;;;;;2.00;1.00;;;;;18.22;40.31;102284.97;5077988;27;52605;-48
2022/02/23 01:57:19;;;;;;;;;2.00;2.00;;;;;18.22;40.29;102284.09;5078395;27;51115;-53
2022/02/23 01:59:44;;;;;;;;;2.25;1.00;;;;;18.22;40.42;102275.88;5078373;27;51081;-52
2022/02/23 02:02:10;;;;;;;;;3.00;3.00;;;;;18.22;40.14;102282.22;5078392;27;51017;-50
2022/02/23 02:04:35;;;;;;;;;1.50;1.00;;;;;18.22;40.39;102281.38;5077879;27;50921;-51
2022/02/23 02:07:01;;;;;;;;;3.25;2.50;;;;;18.23;40.17;102299.53;5077877;27;51309;-53
2022/02/23 02:09:26;;;;;;;;;1.50;1.50;;;;;18.22;40.22;102293.19;5078333;27;51041;-52
2022/02/23 02:11:52;;;;;;;;;2.00;1.00;;;;;18.21;40.41;102293.38;5078121;27;51280;-50
2022/02/23 02:14:17;;;;;;;;;1.25;1.25;;;;;18.21;40.58;102294.22;5077895;27;51454;-53
2022/02/23 02:16:42;;;;;;;;;2.00;2.00;;;;;18.19;40.42;102293.53;5077976;27;51136;-53
2022/02/23 02:19:08;;;;;;;;;5.75;2.00;;;;;18.19;40.32;102293.53;5077795;27;50931;-53
2022/02/23 02:22:04;;;;;;;;;3.75;1.75;;;;;18.18;40.09;102300.91;5077871;27;50965;-51
2022/02/23 02:24:32;;;;;;;;;2.00;2.00;;;;;18.20;40.36;102308.13;5076975;27;51101;-53
2022/02/23 02:26:59;;;;;;;;;3.00;1.00;;;;;18.20;40.17;102303.47;5077760;27;51079;-54
2022/02/23 02:29:25;;;;;;;;;2.75;1.00;;;;;18.18;40.25;102298.19;5077201;27;51035;-53
2022/02/23 02:31:51;;;;;;;;;1.00;0.75;;;;;18.18;40.43;102298.19;5077478;27;51578;-53
2022/02/23 02:34:18;;;;;;;;;1.50;1.25;;;;;18.18;40.45;102289.94;5077594;27;51702;-53
2022/02/23 02:36:43;;;;;;;;;1.00;1.00;;;;;18.18;40.25;102291.84;5075966;28;51337;-51
2022/02/23 02:39:09;;;;;;;;;2.00;2.00;;;;;18.18;40.19;102303.66;5077456;27;51079;-51
2022/02/23 02:41:36;;;;;;;;;2.75;1.25;;;;;18.18;40.21;102305.53;5077468;27;51237;-54
2022/02/23 02:44:03;;;;;;;;;5.00;1.25;;;;;18.17;40.50;102298.34;5077240;27;52717;-51
2022/02/23 02:46:29;;;;;;;;;2.00;0.25;;;;;18.17;40.41;102290.13;5077590;27;51390;-50
2022/02/23 02:48:55;;;;;;;;;2.00;2.00;;;;;18.17;40.41;102290.13;5077541;27;51086;-53
2022/02/23 02:51:20;;;;;;;;;2.00;2.00;;;;;18.17;40.31;102296.47;5077580;27;51182;-52
2022/02/23 02:53:46;;;;;;;;;1.00;1.00;;;;;18.18;40.27;102297.31;5077082;28;50958;-52
2022/02/23 02:56:12;;;;;;;;;3.00;1.75;;;;;18.18;40.16;102294.56;5077121;28;50938;-51
2022/02/23 02:58:37;;;;;;;;;3.00;3.00;;;;;18.17;40.16;102292.88;5077748;27;51184;-53
2022/02/23 03:01:03;;;;;;;;;1.00;1.00;;;;;18.17;40.20;102284.63;5077444;27;51208;-54
2022/02/23 03:03:29;;;;;;;;;0.00;0.00;;;;;18.16;40.25;102289.28;5077319;27;51419;-51
2022/02/23 03:05:54;;;;;;;;;2.00;0.00;;;;;18.16;40.22;102304.88;5075503;27;51045;-52
2022/02/23 03:08:19;;;;;;;;;2.25;1.00;;;;;18.15;40.25;102300.41;5077003;27;51164;-52
2022/02/23 03:10:45;;;;;;;;;2.50;1.50;;;;;18.15;40.35;102293.03;5077381;27;51048;-48
2022/02/23 03:13:10;;;;;;;;;4.50;2.00;;;;;18.15;40.24;102290.31;5076626;27;52802;-49
2022/02/23 03:15:37;;;;;;;;;3.75;2.00;;;;;18.15;40.14;102303.16;5077088;27;51078;-51
2022/02/23 03:18:04;;;;;;;;;1.00;1.00;;;;;18.15;40.20;102297.66;5076844;27;51105;-52
2022/02/23 03:20:30;;;;;;;;;2.50;1.50;;;;;18.14;40.22;102296.81;5077050;27;50977;-50
2022/02/23 03:22:56;;;;;;;;;2.00;1.00;;;;;18.15;40.14;102298.53;5076502;27;51977;-53
2022/02/23 03:25:21;;;;;;;;;1.75;1.75;;;;;18.14;40.19;102295.97;5076824;27;51065;-53
2022/02/23 03:27:47;;;;;;;;;1.25;1.25;;;;;18.15;40.46;102305.91;5076937;27;51291;-51
2022/02/23 03:30:13;;;;;;;;;1.00;1.00;;;;;18.15;40.08;102305.91;5076500;27;51139;-52
2022/02/23 03:32:39;;;;;;;;;1.00;1.00;;;;;18.15;40.13;102303.16;5076502;27;51724;-53
2022/02/23 03:35:05;;;;;;;;;1.75;1.75;;;;;18.14;40.19;102301.44;5076588;27;51169;-50
2022/02/23 03:37:31;;;;;;;;;2.50;2.00;;;;;18.14;40.19;102304.19;5076187;27;51190;-53
2022/02/23 03:39:56;;;;;;;;;1.75;1.75;;;;;18.14;40.49;102305.03;5076922;27;51068;-52
2022/02/23 03:42:22;;;;;;;;;2.50;1.25;;;;;18.13;40.50;102306.06;5075984;27;51083;-51
2022/02/23 03:44:47;;;;;;;;;4.00;2.75;;;;;18.14;40.31;102316.00;5076581;27;51033;-52
2022/02/23 03:47:13;;;;;;;;;2.25;1.00;;;;;18.14;40.46;102309.69;5076536;27;51017;-53
2022/02/23 03:49:39;;;;;;;;;3.75;2.00;;;;;18.14;40.40;102306.94;5076897;27;51261;-49
2022/02/23 03:52:05;;;;;;;;;1.75;1.50;;;;;18.13;40.27;102308.81;5076003;27;51116;-50
2022/02/23 03:54:30;;;;;;;;;2.50;1.00;;;;;18.13;40.04;102305.19;5076344;28;51074;-48
2022/02/23 03:56:56;;;;;;;;;3.25;0.25;;;;;18.14;40.34;102312.41;5076588;27;51407;-53
2022/02/23 03:59:21;;;;;;;;;2.00;1.75;;;;;18.13;40.29;102314.31;5076558;27;51014;-52
2022/02/23 04:01:47;;;;;;;;;4.50;2.00;;;;;18.12;40.30;102307.06;5076207;27;51519;-50
2022/02/23 04:04:14;;;;;;;;;3.50;2.00;;;;;18.12;40.44;102309.81;5076332;27;51078;-53
2022/02/23 04:06:40;;;;;;;;;2.00;1.00;;;;;18.12;40.46;102314.44;5076350;27;51139;-53
2022/02/23 04:09:08;;;;;;;;;1.00;1.00;;;;;18.11;40.71;102308.09;5076404;27;51280;-51
2022/02/23 04:11:34;;;;;;;;;2.00;1.00;;;;;18.11;40.23;102301.78;5075910;27;51083;-51
2022/02/23 04:14:00;;;;;;;;;1.00;1.00;;;;;18.12;40.41;102306.22;5076399;27;51410;-51
2022/02/23 04:16:26;;;;;;;;;2.00;1.00;;;;;18.11;40.03;102299.03;5076172;27;51068;-52
2022/02/23 04:18:51;;;;;;;;;3.00;0.00;;;;;18.12;40.05;102303.47;5076039;27;51247;-52
2022/02/23 04:21:17;;;;;;;;;1.75;1.75;;;;;18.12;40.30;102298.84;5075882;27;51955;-48
2022/02/23 04:23:42;;;;;;;;;4.25;1.00;;;;;18.10;40.29;102302.81;5075807;27;50965;-52
2022/02/23 04:26:08;;;;;;;;;1.50;1.50;;;;;18.10;40.34;102294.56;5076266;27;51382;-52
2022/02/23 04:28:34;;;;;;;;;1.00;1.00;;;;;18.10;40.33;102292.69;5076196;28;51140;-52
2022/02/23 04:31:01;;;;;;;;;2.25;1.00;;;;;18.11;40.30;102291.66;5075509;27;51722;-52
2022/02/23 04:33:26;;;;;;;;;1.00;1.00;;;;;18.09;40.22;102293.72;5074598;27;51068;-52
2022/02/23 04:35:51;;;;;;;;;1.50;1.50;;;;;18.09;40.12;102292.84;5075710;27;51127;-50
2022/02/23 04:38:17;;;;;;;;;3.75;1.75;;;;;18.09;40.26;102293.72;5076136;27;50989;-52
2022/02/23 04:40:43;;;;;;;;;2.00;2.00;;;;;18.09;40.29;102292.84;5075624;27;51967;-50
2022/02/23 04:43:12;;;;;;;;;3.00;2.00;;;;;18.09;40.14;102298.34;5075734;27;51167;-51
2022/02/23 04:45:38;;;;;;;;;0.75;0.75;;;;;18.08;40.35;102294.75;5075856;27;51117;-49
2022/02/23 04:48:04;;;;;;;;;2.00;1.00;;;;;18.08;40.08;102304.88;5076085;27;51247;-53
2022/02/23 04:50:29;;;;;;;;;1.00;1.00;;;;;18.08;40.10;102300.22;5075609;27;50876;-53
2022/02/23 04:52:54;;;;;;;;;2.00;1.75;;;;;18.07;40.22;102301.25;5074437;27;51379;-53
2022/02/23 04:55:20;;;;;;;;;1.25;1.00;;;;;18.07;40.41;102297.66;5079185;27;51518;-51
2022/02/23 04:57:45;;;;;;;;;1.00;1.00;;;;;18.07;40.38;102290.28;5079326;27;51050;-51
2022/02/23 05:00:12;;;;;;;;;2.00;1.00;;;;;18.06;40.18;102302.28;5078968;27;51811;-53
2022/02/23 05:02:37;;;;;;;;;3.25;2.00;;;;;18.07;40.26;102300.41;5079193;27;50970;-49
2022/02/23 05:05:03;;;;;;;;;1.00;1.00;;;;;18.06;40.28;102305.03;5079124;27;51111;-51
2022/02/23 05:07:28;;;;;;;;;2.00;1.00;;;;;18.07;40.16;102312.22;5078745;27;51175;-52
2022/02/23 05:09:55;;;;;;;;;1.75;1.75;;;;;18.06;40.35;102310.53;5078622;27;51100;-53
2022/02/23 05:12:20;;;;;;;;;2.00;2.00;;;;;18.07;40.31;102305.91;5079023;27;51273;-50
2022/02/23 05:14:46;;;;;;;;;2.50;2.00;;;;;18.06;40.18;102305.03;5078980;27;51029;-53
2022/02/23 05:17:11;;;;;;;;;3.50;2.00;;;;;18.05;40.21;102300.59;5079138;27;51044;-53
2022/02/23 05:19:37;;;;;;;;;1.00;1.00;;;;;18.05;40.23;102303.31;5078485;27;52731;-50
2022/02/23 05:22:04;;;;;;;;;2.25;2.00;;;;;18.05;40.04;102307.97;5078377;27;50972;-52
2022/02/23 05:24:29;;;;;;;;;0.00;0.00;;;;;18.05;40.21;102305.22;5079131;27;51043;-47
2022/02/23 05:26:56;;;;;;;;;3.75;2.00;;;;;18.05;40.07;102302.47;5079099;27;51272;-48
2022/02/23 05:29:22;;;;;;;;;0.25;0.25;;;;;18.05;40.19;102314.28;5078581;27;52184;-48
2022/02/23 05:31:48;;;;;;;;;3.00;1.00;;;;;18.05;40.01;102307.97;5078440;27;51004;-47
2022/02/23 05:34:13;;;;;;;;;1.00;1.00;;;;;18.05;40.27;102308.81;5078652;27;51507;-51
2022/02/23 05:36:39;;;;;;;;;0.50;0.50;;;;;18.05;40.19;102307.97;5078679;27;51148;-53
2022/02/23 05:39:05;;;;;;;;;1.25;1.00;;;;;18.05;40.23;102314.28;5076934;28;51688;-54
2022/02/23 05:41:30;;;;;;;;;3.25;1.50;;;;;18.06;40.36;102323.38;5078416;27;51123;-53
2022/02/23 05:43:56;;;;;;;;;3.00;1.75;;;;;18.05;40.18;102318.91;5078278;27;51134;-50
2022/02/23 05:46:21;;;;;;;;;3.75;1.50;;;;;18.05;40.21;102324.41;5078792;28;51303;-51
2022/02/23 05:48:47;;;;;;;;;1.25;1.25;;;;;18.05;40.26;102324.41;5078267;27;51936;-53
2022/02/23 05:51:30;;;;;;;;;1.00;1.00;;;;;18.04;40.06;102314.47;5078041;27;51035;-51
2022/02/23 05:53:56;;;;;;;;;3.00;0.50;;;;;18.03;40.02;102319.09;5078251;27;50971;-52
2022/02/23 05:56:21;;;;;;;;;2.00;1.00;;;;;18.05;40.00;102324.41;5078464;28;50989;-52
2022/02/23 05:58:46;;;;;;;;;1.00;1.00;;;;;18.04;40.12;102325.44;5078183;27;51721;-50
2022/02/23 06:01:12;;;;;;;;;7.50;1.00;;;;;18.04;40.49;102329.03;5077719;27;51103;-52
2022/02/23 06:03:37;;;;;;;;;3.25;2.00;;;;;18.02;40.38;102320.09;5078309;27;51157;-51
2022/02/23 06:06:03;;;;;;;;;2.75;1.00;;;;;18.04;40.22;102319.97;5078157;27;51163;-53
2022/02/23 06:08:29;;;;;;;;;3.00;2.00;;;;;18.02;40.24;102325.59;5077806;27;52655;-51
2022/02/23 06:10:54;;;;;;;;;1.00;1.00;;;;;18.02;40.19;102330.22;5078188;27;51187;-53
2022/02/23 06:13:20;;;;;;;;;4.00;2.00;;;;;18.03;40.34;102326.44;5078174;27;51184;-51
2022/02/23 06:15:45;;;;;;;;;2.00;1.75;;;;;18.02;40.26;102325.59;5078137;27;51163;-48
2022/02/23 06:18:11;;;;;;;;;2.00;1.75;;;;;18.02;39.94;102330.22;5077287;27;51890;-48
2022/02/23 06:20:37;;;;;;;;;2.00;2.00;;;;;18.01;40.35;102332.09;5077906;27;51016;-50
2022/02/23 06:23:02;;;;;;;;;2.00;2.00;;;;;18.02;40.10;102330.22;5077698;27;51257;-48
2022/02/23 06:25:28;;;;;;;;;2.25;2.00;;;;;18.02;40.23;102330.22;5078051;27;51250;-49
2022/02/23 06:27:53;;;;;;;;;1.00;1.00;;;;;18.02;40.27;102342.03;5077483;27;52025;-50
2022/02/23 06:30:18;;;;;;;;;1.25;1.25;;;;;18.01;40.14;102331.25;5077419;27;51428;-49
2022/02/23 06:32:44;;;;;;;;;1.25;1.00;;;;;18.01;39.89;102336.72;5077392;27;51612;-53
2022/02/23 06:35:09;;;;;;;;;1.75;1.00;;;;;18.01;40.29;102344.94;5077739;27;51215;-51
2022/02/23 06:37:36;;;;;;;;;2.50;1.00;;;;;18.01;40.10;102345.81;5076858;27;51092;-52
2022/02/23 06:40:01;;;;;;;;;3.25;1.75;;;;;18.01;40.26;102342.22;5077548;27;50934;-53
2022/02/23 06:42:27;;;;;;;;;2.00;1.25;;;;;18.01;40.19;102353.19;5077404;27;51150;-55
2022/02/23 06:44:52;;;;;;;;;2.25;1.50;;;;;18.00;40.02;102359.69;5077598;27;51366;-51
2022/02/23 06:47:19;;;;;;;;;4.25;2.50;;;;;18.00;40.25;102367.91;5077145;28;51745;-52
2022/02/23 06:49:44;;;;;;;;;2.25;2.00;;;;;18.00;40.31;102366.03;5077407;28;51091;-51
2022/02/23 06:52:10;;;;;;;;;3.00;1.25;;;;;17.99;40.16;102364.31;5076975;27;50956;-49
2022/02/23 06:54:35;;;;;;;;;3.00;2.00;;;;;18.00;40.07;102363.28;5077318;27;51037;-51
2022/02/23 06:57:04;;;;;;;;;2.25;2.25;;;;;18.00;40.27;102366.03;5077025;27;51974;-51
2022/02/23 06:59:29;;;;;;;;;3.25;3.25;;;;;18.00;40.25;102367.91;5075524;28;51246;-50
2022/02/23 07:01:54;;;;;;;;;3.25;2.75;;;;;18.00;40.12;102368.78;5077241;27;51109;-53
2022/02/23 07:04:20;;;;;;;;;1.50;1.50;;;;;18.00;40.00;102367.91;5077364;27;50935;-53
2022/02/23 07:06:45;;;;;;;;;3.25;3.25;;;;;17.99;39.90;102369.81;5076260;27;51740;-52
2022/02/23 07:09:10;;;;;;;;;1.75;1.00;;;;;17.99;40.03;102368.94;5076870;27;50940;-51
2022/02/23 07:11:37;;;;;;;;;2.00;2.00;;;;;17.99;39.98;102368.94;5076827;27;51150;-49
2022/02/23 07:14:03;;;;;;;;;3.00;3.00;;;;;17.99;40.19;102374.44;5077051;27;51061;-52
2022/02/23 07:16:29;;;;;;;;;2.00;2.00;;;;;17.99;39.95;102369.81;5075972;27;51832;-52
2022/02/23 07:18:55;;;;;;;;;1.75;1.00;;;;;17.98;39.99;102368.09;5076279;28;51147;-51
2022/02/23 07:21:20;;;;;;;;;3.00;1.25;;;;;18.00;40.12;102384.38;5092179;27;51209;-52
2022/02/23 07:23:46;;;;;;;;;2.25;2.25;;;;;17.99;40.12;102377.16;5076742;27;51037;-52
2022/02/23 07:26:14;;;;;;;;;1.50;1.00;;;;;17.98;39.98;102373.56;5076386;27;52054;-52
2022/02/23 07:28:40;;;;;;;;;6.75;1.25;;;;;17.99;40.32;102379.91;5076310;27;51159;-49
2022/02/23 07:31:07;;;;;;;;;4.50;2.75;;;;;17.98;40.14;102381.78;5076284;27;51159;-50
2022/02/23 07:33:35;;;;;;;;;5.25;2.00;;;;;17.99;40.33;102377.16;5076472;27;51259;-53
2022/02/23 07:36:00;;;;;;;;;5.25;2.50;;;;;17.98;39.99;102384.53;5076113;27;51127;-52
2022/02/23 07:38:26;;;;;;;;;2.00;1.50;;;;;17.99;40.04;102382.66;5076463;27;51021;-51
2022/02/23 07:40:51;;;;;;;;;4.50;2.00;;;;;17.98;40.24;102384.53;5076397;27;51646;-51
2022/02/23 07:43:16;;;;;;;;;6.25;3.50;;;;;17.99;40.33;102371.69;5076390;27;51095;-50
2022/02/23 07:45:42;;;;;;;;;2.00;2.00;;;;;17.99;39.99;102375.28;5076167;27;51008;-51
2022/02/23 07:48:09;;;;;;;;;7.50;4.25;;;;;17.99;40.16;102378.03;5076042;27;51001;-52
2022/02/23 07:50:35;;;;;;;;;3.00;2.75;;;;;17.99;40.02;102383.50;5075947;27;51244;-52
2022/02/23 07:53:01;;;;;;;;;3.25;3.25;;;;;18.00;40.23;102387.97;5075798;27;51139;-51
2022/02/23 07:55:26;;;;;;;;;3.75;3.75;;;;;17.99;40.17;102379.91;5075761;27;51841;-46
2022/02/23 07:57:52;;;;;;;;;4.25;2.75;;;;;18.00;40.01;102387.97;5075552;27;50939;-52
2022/02/23 08:00:20;;;;;;;;;2.00;2.00;;;;;18.01;40.10;102386.06;5076139;27;50989;-52
2022/02/23 08:02:45;;;;;;;;;3.00;3.00;;;;;18.00;40.32;102387.97;5076206;27;51124;-52
2022/02/23 08:05:10;;;;;;;;;5.00;4.00;;;;;18.01;40.11;102386.06;5075707;27;51152;-50
2022/02/23 08:07:36;;;;;;;;;4.75;2.00;;;;;18.01;40.08;102380.59;5075603;27;51040;-49
2022/02/23 08:10:03;;;;;;;;;5.50;2.75;;;;;18.01;39.93;102388.81;5075938;27;51010;-49
2022/02/23 08:12:28;;;;;;;;;3.00;2.00;;;;;18.02;40.07;102398.75;5075821;27;51273;-47
2022/02/23 08:14:55;;;;;;;;;7.50;3.75;;;;;18.01;40.04;102392.41;5075550;27;51996;-53
2022/02/23 08:20:06;;;;;;;;;2.75;2.75;;;;;18.02;40.10;102393.28;5075414;28;51137;-52
2022/02/23 08:22:32;;;;;;;;;5.25;4.50;;;;;18.00;39.88;102385.22;5075499;27;50930;-50
2022/02/23 08:24:58;;;;;;;;;6.00;3.00;;;;;18.02;40.10;102385.06;5075316;27;51820;-50
2022/02/23 08:27:25;;;;;;;;;7.00;4.75;;;;;18.01;40.19;102389.69;5075676;27;51297;-49
2022/02/23 08:29:54;;;;;;;;;6.50;4.50;;;;;18.02;40.20;102390.53;5077471;28;51360;-52
2022/02/23 08:32:23;;;;;;;;;8.50;5.00;;;;;18.02;39.89;102398.75;5079247;27;51333;-52
2022/02/23 08:34:49;;;;;;;;;5.75;4.50;;;;;18.02;40.31;102396.03;5079029;27;51963;-51
2022/02/23 08:37:15;;;;;;;;;7.00;4.00;;;;;18.03;40.19;102400.47;5078686;27;51176;-52
2022/02/23 08:39:42;;;;;;;;;5.00;4.75;;;;;18.03;40.12;102395.88;5079108;27;51155;-52
2022/02/23 08:42:11;;;;;;;;;5.00;3.50;;;;;18.04;40.20;102396.72;5079178;27;51716;-54
2022/02/23 08:44:36;;;;;;;;;7.00;5.50;;;;;18.04;40.13;102405.81;5078832;27;52330;-52
2022/02/23 08:47:03;;;;;;;;;5.50;5.50;;;;;18.04;40.17;102405.81;5079084;27;51116;-51
2022/02/23 08:49:29;;;;;;;;;4.25;4.00;;;;;18.04;40.03;102403.06;5078785;27;51073;-52
2022/02/23 08:51:55;;;;;;;;;4.75;4.75;;;;;18.05;39.94;102407.53;5078364;27;51184;-52
2022/02/23 08:54:21;;;;;;;;;9.00;6.00;;;;;18.04;40.16;102407.69;5078557;27;51745;-51
2022/02/23 08:56:47;;;;;;;;;7.25;6.00;;;;;18.04;40.15;102416.78;5078533;27;51115;-50
2022/02/23 08:59:13;;;;;;;;;4.75;4.50;;;;;18.04;40.30;102415.94;5078769;28;51179;-53
2022/02/23 09:01:39;;;;;;;;;6.75;4.00;;;;;18.04;40.26;102411.31;5078706;27;51034;-54
2022/02/23 09:04:05;;;;;;;;;6.00;6.00;;;;;18.03;40.04;102404.09;5078479;27;51604;-52
2022/02/23 09:06:33;;;;;;;;;6.25;5.50;;;;;18.04;40.05;102404.97;5078123;27;51060;-53
2022/02/23 09:09:03;;;;;;;;;6.00;5.25;;;;;18.04;39.91;102399.47;5078426;27;51195;-51
2022/02/23 09:11:28;;;;;;;;;6.75;5.00;;;;;18.05;40.15;102390.22;5078664;28;51070;-53
2022/02/23 09:13:54;;;;;;;;;7.50;5.00;;;;;18.05;40.18;102391.06;5078623;27;51770;-53
2022/02/23 09:16:19;;;;;;;;;9.25;7.25;;;;;18.06;39.95;102391.94;5078495;27;51123;-49
2022/02/23 09:18:45;;;;;;;;;8.75;5.50;;;;;18.05;40.29;102391.06;5078429;27;51135;-49
2022/02/23 09:21:10;;;;;;;;;9.00;6.25;;;;;18.07;39.97;102404.63;5078406;27;51183;-48
2022/02/23 09:23:36;;;;;;;;;7.00;5.50;;;;;18.07;39.88;102397.25;5078072;27;50994;-52
2022/02/23 09:26:04;;;;;;;;;6.00;5.75;;;;;18.08;40.13;102389.88;5078433;27;51014;-52
2022/02/23 09:28:33;;;;;;;;;5.50;5.50;;;;;18.09;39.97;102384.22;5078277;27;51106;-51
2022/02/23 09:30:59;;;;;;;;;9.00;4.25;;;;;18.11;40.28;102381.28;5077973;27;51124;-51
2022/02/23 09:33:24;;;;;;;;;6.25;5.50;;;;;18.13;40.14;102384.72;5076942;27;52116;-53
2022/02/23 09:35:50;;;;;;;;;8.00;6.00;;;;;18.13;40.11;102366.41;5077202;27;51129;-53
2022/02/23 09:38:17;;;;;;;;;4.75;4.75;;;;;18.14;40.01;102376.34;5077052;28;51065;-54
2022/02/23 09:40:56;;;;;;;;;7.75;6.00;;;;;18.15;40.22;102375.31;5076530;27;51183;-52
2022/02/23 09:43:21;;;;;;;;;5.75;5.75;;;;;18.16;39.93;102368.81;5076589;27;51112;-53
2022/02/23 09:45:53;;;;;;;;;9.00;5.75;;;;;18.19;40.00;102370.34;5076896;28;51150;-52
2022/02/23 09:48:20;;;;;;;;;4.00;4.00;;;;;18.21;39.97;102368.28;5077073;27;51076;-53
2022/02/23 09:50:46;;;;;;;;;4.50;4.25;;;;;18.24;40.04;102369.84;5077097;27;51227;-49
2022/02/23 09:53:14;;;;;;;;;5.25;4.25;;;;;18.24;39.88;102367.09;5076420;27;52856;-54
2022/02/23 09:55:40;;;;;;;;;10.00;6.25;;;;;18.27;40.01;102364.88;5076740;27;51049;-51
2022/02/23 09:58:05;;;;;;;;;7.00;4.50;;;;;18.29;40.14;102359.22;5076538;27;51094;-52
2022/02/23 10:00:32;;;;;;;;;6.00;5.00;;;;;18.32;40.09;102354.22;5076720;27;51104;-53
2022/02/23 10:02:58;;;;;;;;;6.25;6.25;;;;;18.34;40.15;102357.69;5076166;27;52131;-51
2022/02/23 10:05:24;;;;;;;;;6.75;5.00;;;;;18.38;39.94;102355.44;5076493;27;51363;-53
2022/02/23 10:07:49;;;;;;;;;6.25;5.00;;;;;18.40;39.88;102351.47;5075726;27;51125;-53
2022/02/23 10:10:33;;;;;;;;;4.25;4.00;;;;;18.42;39.82;102354.91;5076686;27;51037;-53
2022/02/23 10:13:03;;;;;;;;;3.25;3.00;;;;;18.45;39.98;102349.09;5076302;27;52050;-53
2022/02/23 10:15:30;;;;;;;;;5.00;4.25;;;;;18.49;39.84;102343.25;5075976;27;51077;-54
2022/02/23 10:17:56;;;;;;;;;3.00;1.25;;;;;18.52;39.85;102338.25;5076491;27;51131;-54
2022/02/23 10:20:32;;;;;;;;;5.00;4.00;;;;;18.55;39.78;102346.19;5075890;27;51358;-52
2022/02/23 10:23:02;;;;;;;;;6.75;6.00;;;;;18.59;39.84;102344.78;5075776;28;51095;-50
2022/02/23 10:25:30;;;;;;;;;1.75;1.75;;;;;18.63;39.73;102343.41;5075747;27;51155;-52
2022/02/23 10:28:18;;;;;;;;;8.50;5.50;;;;;18.66;39.72;102342.25;5076052;28;50964;-49
2022/02/23 10:33:37;;;;;;;;;6.00;4.00;;;;;18.68;39.66;102343.78;5110396;27;51147;-52
2022/02/23 10:36:08;;;;;;;;;3.50;3.50;;;;;18.72;39.57;102341.53;5092870;27;51032;-52
2022/02/23 10:38:39;;;;;;;;;4.00;2.25;;;;;18.75;39.50;102338.41;5092794;27;50973;-52
2022/02/23 10:41:08;;;;;;;;;5.25;3.00;;;;;18.77;39.81;102336.38;5092279;27;52465;-50
2022/02/23 10:43:34;;;;;;;;;8.50;2.00;;;;;18.78;39.49;102335.34;5092847;27;51416;-53
2022/02/23 10:46:09;;;;;;;;;3.50;2.00;;;;;18.80;39.58;102338.78;5092857;27;51252;-51
2022/02/23 10:48:40;;;;;;;;;7.50;3.00;;;;;18.81;39.48;102335.00;5092805;27;51078;-53
2022/02/23 10:51:09;;;;;;;;;5.50;3.75;;;;;18.82;39.39;102331.22;5092017;27;51850;-53
2022/02/23 10:53:36;;;;;;;;;3.75;3.75;;;;;18.85;39.43;102330.00;5092834;27;51369;-50
2022/02/23 10:56:19;;;;;;;;;4.00;2.75;;;;;18.87;39.15;102322.47;5092213;27;51099;-51
2022/02/23 10:58:45;;;;;;;;;3.25;2.50;;;;;18.87;39.18;102322.47;5092727;27;51131;-51
2022/02/23 11:01:10;;;;;;;;;3.50;3.25;;;;;18.87;39.15;102308.75;5092022;27;51863;-52
2022/02/23 11:03:36;;;;;;;;;6.00;4.25;;;;;18.88;39.15;102316.78;5092425;27;51022;-49
2022/02/23 11:06:02;;;;;;;;;3.50;3.00;;;;;18.89;38.93;102314.91;5092381;27;51036;-50
2022/02/23 11:08:28;;;;;;;;;4.25;3.00;;;;;18.90;39.01;102313.88;5092153;27;51319;-53
2022/02/23 11:10:54;;;;;;;;;3.50;3.00;;;;;18.89;39.10;102315.75;5092176;27;51683;-53
2022/02/23 11:13:19;;;;;;;;;6.50;3.75;;;;;18.90;38.81;102314.72;5092159;27;51220;-48
2022/02/23 11:15:48;;;;;;;;;3.00;3.00;;;;;18.92;38.97;102317.28;5092544;27;51127;-53
2022/02/23 11:18:15;;;;;;;;;4.50;3.75;;;;;18.91;38.99;102316.44;5092689;27;51410;-51
2022/02/23 11:20:43;;;;;;;;;4.50;4.00;;;;;18.92;38.82;102315.41;5091192;27;51720;-48
2022/02/23 11:23:14;;;;;;;;;6.00;2.50;;;;;18.92;38.90;102307.16;5091939;27;51127;-53
2022/02/23 11:25:41;;;;;;;;;4.25;1.25;;;;;18.93;38.89;102306.13;5092335;27;51051;-50